Stations météo

Publicité
Briancon, France (7593): Température de l'air & dewpoint: 31.03.2020 15:00:00 - 06.04.2020 15:00:00 (CEST)Briancon, France (7593): Vitesse du vent: 31.03.2020 15:00:00 - 06.04.2020 15:00:00 (CEST)Briancon, France (7593): Direction du vent: 31.03.2020 15:00:00 - 06.04.2020 15:00:00 (CEST)Briancon, France (7593): Quantités de précipitations: 31.03.2020 15:00:00 - 06.04.2020 15:00:00 (CEST)
Date & Time tt [°C] td [°C] ff [km/h] ff [knt] dd rr [mm]
06.04.2020 15:00:00 14,5 -5,9 10 6 ENE 0,0
06.04.2020 14:00:00 13,4 -5,7 8 4 ENE 0,0
06.04.2020 13:00:00 12,2 -6,8 11 6 ENE 0,0
06.04.2020 12:00:00 11,2 -6,7 11 6 E 0,0
06.04.2020 11:00:00 9,8 -6,1 9 5 NE 0,0
06.04.2020 10:00:00 6,7 -5,0 5 3 S 0,0
06.04.2020 09:00:00 3,8 -5,7 8 5 ESE 0,0
06.04.2020 08:00:00 0,8 -5,9 5 3 SSW 0,0
06.04.2020 07:00:00 -0,2 -6,4 3 1 SE 0,0
06.04.2020 06:00:00 -0,1 -6,3 3 2 SE 0,0
06.04.2020 05:00:00 0,5 -6,6 0 0 N 0,0
06.04.2020 04:00:00 2,6 -7,3 5 3 SSE 0,0
06.04.2020 03:00:00 4,3 -8,1 10 5 ESE 0,0
06.04.2020 02:00:00 4,7 -7,5 15 8 ENE 0,0
06.04.2020 01:00:00 4,9 -6,1 14 8 ENE 0,0
06.04.2020 00:00:00 5,7 -3,9 13 7 ENE 0,0
05.04.2020 23:00:00 6,9 -3,7 15 8 ENE 0,0
05.04.2020 22:00:00 7,5 -4,0 16 9 E 0,0
05.04.2020 21:00:00 8,2 -3,3 18 10 ENE 0,0
05.04.2020 20:00:00 9,9 -3,4 23 12 ENE 0,0
05.04.2020 19:00:00 11,4 -3,2 27 15 E 0,0
05.04.2020 18:00:00 12,4 -3,0 27 14 ENE 0,0
05.04.2020 17:00:00 13,4 -3,4 22 12 ENE 0,0
05.04.2020 16:00:00 13,8 -3,1 20 11 ENE 0,0
05.04.2020 15:00:00 13,6 -3,7 19 10 ENE 0,0
05.04.2020 14:00:00 13,2 -3,6 14 8 ENE 0,0
05.04.2020 13:00:00 12,1 -4,5 12 7 NE 0,0
05.04.2020 12:00:00 11,1 -4,6 10 6 NE 0,0
05.04.2020 11:00:00 9,7 -4,3 15 8 NE 0,0
05.04.2020 10:00:00 8,2 -4,0 11 6 NNE 0,0
05.04.2020 09:00:00 4,2 -4,3 6 4 SSE 0,0
05.04.2020 08:00:00 1,3 -5,2 6 3 E 0,0
05.04.2020 07:00:00 1,2 -5,3 5 3 SE 0,0
05.04.2020 06:00:00 2,4 -5,0 10 6 E 0,0
05.04.2020 05:00:00 1,5 -4,6 5 3 S 0,0
05.04.2020 04:00:00 2,0 -3,7 4 2 SSW 0,0
05.04.2020 03:00:00 2,4 -3,5 3 2 SW 0,0
05.04.2020 02:00:00 2,4 -3,5 2 1 E 0,0
05.04.2020 01:00:00 4,2 -2,9 2 1 E 0,0
05.04.2020 00:00:00 6,1 -2,3 10 5 E 0,0
04.04.2020 23:00:00 6,4 -2,0 11 6 E 0,0
04.04.2020 22:00:00 7,7 -2,1 13 7 E 0,0
04.04.2020 21:00:00 8,9 -2,7 17 9 ENE 0,0
04.04.2020 20:00:00 9,9 -3,8 6 3 ENE 0,0
04.04.2020 19:00:00 13,9 -4,3 13 7 WSW 0,0
04.04.2020 18:00:00 15,4 -5,1 14 8 WSW 0,0
04.04.2020 17:00:00 15,9 -4,7 16 9 WSW 0,0
04.04.2020 16:00:00 15,6 -4,9 13 7 WSW 0,0
04.04.2020 15:00:00 14,8 -6,2 11 6 WSW 0,0
04.04.2020 14:00:00 13,0 -6,1 8 4 W 0,0
04.04.2020 13:00:00 12,7 -4,5 5 3 S 0,0
04.04.2020 12:00:00 10,7 -5,4 4 2 SE 0,0
04.04.2020 11:00:00 8,9 -4,0 3 1 S 0,0
04.04.2020 10:00:00 5,4 -2,9 2 1 ESE 0,0
04.04.2020 09:00:00 0,4 -4,6 0 0 N 0,0
04.04.2020 08:00:00 -1,2 -5,4 4 2 ENE 0,0
04.04.2020 07:00:00 -1,5 -5,7 0 0 N 0,0
04.04.2020 06:00:00 -1,1 -5,7 2 1 SE 0,0
04.04.2020 05:00:00 -0,4 -5,4 3 1 ENE 0,0
04.04.2020 04:00:00 -0,4 -5,2 3 1 ESE 0,0
04.04.2020 03:00:00 0,3 -4,9 2 1 SE 0,0
04.04.2020 02:00:00 0,9 -4,9 3 1 ENE 0,0
04.04.2020 01:00:00 1,4 -5,1 4 2 E 0,0
04.04.2020 00:00:00 4,2 -4,3 16 8 ENE 0,0
03.04.2020 23:00:00 4,9 -4,1 21 11 ENE 0,0
03.04.2020 22:00:00 6,1 -3,3 19 10 E 0,0
03.04.2020 21:00:00 6,4 -4,4 13 7 NE 0,0
03.04.2020 20:00:00 8,4 -4,4 18 10 NE 0,0
03.04.2020 19:00:00 11,2 -7,6 19 10 NNE 0,0
03.04.2020 18:00:00 13,3 -9,2 10 5 N 0,0
03.04.2020 17:00:00 13,4 -7,3 10 5 NE 0,0
03.04.2020 16:00:00 13,1 -9,4 11 6 ENE 0,0
03.04.2020 15:00:00 12,8 -8,4 9 5 ENE 0,0
03.04.2020 14:00:00 11,8 -9,3 8 4 NE 0,0
03.04.2020 13:00:00 11,2 -8,7 6 3 WSW 0,0
03.04.2020 12:00:00 9,4 -8,7 5 3 W 0,0
03.04.2020 11:00:00 7,9 -6,6 5 3 S 0,0
03.04.2020 10:00:00 4,7 -6,2 3 2 S 0,0
03.04.2020 09:00:00 0,1 -6,8 2 1 ESE 0,0
03.04.2020 08:00:00 -1,5 -7,0 2 1 SW 0,0
03.04.2020 07:00:00 -1,2 -6,7 4 2 E 0,0
03.04.2020 06:00:00 -1,6 -6,7 3 2 ESE 0,0
03.04.2020 05:00:00 -1,2 -6,4 0 0 N 0,0
03.04.2020 04:00:00 -1,1 -6,1 2 1 SE 0,0
03.04.2020 03:00:00 -0,8 -5,8 0 0 N 0,0
03.04.2020 02:00:00 -0,4 -5,2 3 2 E 0,0
03.04.2020 01:00:00 0,7 -4,5 2 1 S 0,0
03.04.2020 00:00:00 1,4 -4,1 0 0 N 0,0
02.04.2020 23:00:00 2,1 -4,0 0 0 N 0,0
02.04.2020 22:00:00 4,1 -4,4 4 2 S 0,0
02.04.2020 21:00:00 5,4 -3,4 2 1 SW 0,0
02.04.2020 20:00:00 6,8 -2,6 2 1 NNE 0,0
02.04.2020 19:00:00 8,8 -3,1 5 3 NW 0,0
02.04.2020 18:00:00 11,3 -3,3 14 8 WSW 0,0
02.04.2020 17:00:00 12,4 -2,7 19 11 W 0,0
02.04.2020 16:00:00 13,2 -4,5 8 4 NW 0,0
02.04.2020 15:00:00 12,6 -6,4 10 5 WNW 0,0
02.04.2020 14:00:00 11,9 -7,0 9 5 WNW 0,0
02.04.2020 13:00:00 10,4 -6,0 9 5 W 0,0
02.04.2020 12:00:00 8,1 -4,1 5 3 WNW 0,0
02.04.2020 11:00:00 6,3 -2,1 4 2 SSW 0,0
02.04.2020 10:00:00 3,4 -2,4 3 1 SE 0,0
02.04.2020 09:00:00 -1,4 -4,6 0 0 N 0,0
02.04.2020 08:00:00 -2,0 -4,7 2 1 E 0,0
02.04.2020 07:00:00 -1,2 -4,0 2 1 NW 0,0
02.04.2020 06:00:00 -0,8 -3,8 2 1 SSW 0,0
02.04.2020 05:00:00 -0,7 -3,9 0 0 N 0,0
02.04.2020 04:00:00 -0,7 -3,9 0 0 N 0,0
02.04.2020 03:00:00 -1,3 -4,0 3 2 SSE 0,0
02.04.2020 02:00:00 -0,9 -3,8 3 2 S 0,0
02.04.2020 01:00:00 -0,5 -3,5 2 1 NNW 0,0
02.04.2020 00:00:00 0,0 -3,6 2 1 SE 0,0
01.04.2020 23:00:00 0,8 -3,3 2 1 S 0,0
01.04.2020 22:00:00 1,8 -3,1 3 2 S 0,0
01.04.2020 21:00:00 2,7 -3,2 2 1 E 0,0
01.04.2020 20:00:00 5,5 -3,1 10 5 NE 0,0
01.04.2020 19:00:00 8,9 -2,7 16 8 WNW 0,0
01.04.2020 18:00:00 10,7 -2,7 22 12 WSW 0,0
01.04.2020 17:00:00 11,0 -5,1 11 6 NW 0,0
01.04.2020 16:00:00 10,6 -3,9 12 6 NNE 0,0
01.04.2020 15:00:00 10,6 -3,9 10 6 N 0,0
01.04.2020 14:00:00 9,4 -4,2 9 5 NNE 0,0
01.04.2020 13:00:00 7,3 -3,9 13 7 NNE 0,0
01.04.2020 12:00:00 6,3 -3,9 11 6 N 0,0
01.04.2020 11:00:00 4,9 -3,9 5 3 SSE 0,0
01.04.2020 10:00:00 2,3 -4,2 4 2 S 0,0
01.04.2020 09:00:00 -1,8 -5,6 5 3 S 0,0
01.04.2020 08:00:00 -2,3 -6,1 0 0 N 0,0
01.04.2020 07:00:00 -2,6 -6,6 2 1 E 0,0
01.04.2020 06:00:00 -1,7 -6,5 6 4 E 0,0
01.04.2020 05:00:00 -1,0 -7,0 5 3 ENE 0,0
01.04.2020 04:00:00 -0,1 -6,3 14 8 ENE 0,0
01.04.2020 03:00:00 0,4 -6,0 19 10 NE 0,0
01.04.2020 02:00:00 0,7 -6,2 17 9 NE 0,0
01.04.2020 01:00:00 1,1 -6,0 24 13 NE 0,0
01.04.2020 00:00:00 1,7 -5,9 22 12 NE 0,0
31.03.2020 23:00:00 2,6 -6,0 15 8 E 0,0
31.03.2020 22:00:00 2,6 -6,5 3 2 SE 0,0
31.03.2020 21:00:00 5,6 -7,3 16 9 ENE 0,0
31.03.2020 20:00:00 7,6 -7,3 16 9 ENE 0,0
31.03.2020 19:00:00 9,0 -6,4 23 13 ENE 0,0
31.03.2020 18:00:00 10,0 -6,0 22 12 ENE 0,0
31.03.2020 17:00:00 10,2 -5,8 20 11 ENE 0,0
31.03.2020 16:00:00 9,2 -2,4 20 11 NNE 0,0
31.03.2020 15:00:00 8,2 -2,5 25 14 NNE 0,0

tt = Température de l'air
td = dewpoint
ff = Vitesse du vent
dd = Direction du vent
rr = Quantités de précipitations

stations d'obs. à proximité